Time;durP1;ratioP1;P1;durP2;ratioP2;P2;SDS_P1;SDS_P2;PMS_P1;PMS_P2;Temp;Humidity;BMP_temperature;BMP_pressure;BME280_temperature;BME280_humidity;BME280_pressure;Samples;Min_cycle;Max_cycle;Signal;HPM_P1;HPM_P2
2022/07/01 00:00:42;;;;;;;9.30;7.95;;;25.70;91.50;;;;;;5055496;28;20210;-66
2022/07/01 00:03:10;;;;;;;11.07;7.72;;;25.60;91.70;;;;;;5039427;28;20206;-66
2022/07/01 00:05:36;;;;;;;9.25;6.93;;;25.70;92.10;;;;;;5055475;28;20209;-66
2022/07/01 00:08:03;;;;;;;12.30;8.52;;;25.60;92.20;;;;;;5054583;28;20222;-66
2022/07/01 00:10:31;;;;;;;9.90;7.43;;;25.60;92.40;;;;;;5042165;28;20201;-67
2022/07/01 00:12:57;;;;;;;9.18;7.53;;;25.60;92.60;;;;;;5051374;28;20647;-68
2022/07/01 00:15:24;;;;;;;10.40;7.53;;;25.60;92.80;;;;;;5055168;28;20208;-66
2022/07/01 00:17:51;;;;;;;11.27;7.70;;;25.50;92.90;;;;;;5054729;28;20202;-67
2022/07/01 00:20:20;;;;;;;13.35;9.43;;;25.60;93.10;;;;;;5054485;28;20221;-66
2022/07/01 00:22:47;;;;;;;13.43;11.55;;;25.60;93.30;;;;;;5053817;28;20202;-66
2022/07/01 00:25:14;;;;;;;12.73;9.48;;;25.60;93.40;;;;;;5054956;28;20577;-65
2022/07/01 00:27:41;;;;;;;10.45;8.15;;;25.60;93.50;;;;;;5055441;28;20293;-67
2022/07/01 00:30:08;;;;;;;11.70;8.73;;;25.60;93.60;;;;;;5055414;28;20210;-66
2022/07/01 00:32:35;;;;;;;11.05;8.02;;;25.60;93.70;;;;;;5054417;28;20202;-66
2022/07/01 00:35:02;;;;;;;9.77;7.78;;;25.60;93.80;;;;;;5054454;28;20216;-66
2022/07/01 00:37:31;;;;;;;10.85;8.93;;;25.60;93.90;;;;;;5054629;28;20229;-66
2022/07/01 00:39:58;;;;;;;10.48;8.27;;;25.60;94.00;;;;;;5053789;28;20221;-66
2022/07/01 00:42:24;;;;;;;8.85;7.95;;;25.60;94.10;;;;;;5052175;28;20209;-66
2022/07/01 00:44:51;;;;;;;10.27;8.50;;;25.60;94.30;;;;;;5053222;28;20666;-66
2022/07/01 00:47:18;;;;;;;13.93;8.45;;;25.60;94.40;;;;;;5055007;28;20217;-65
2022/07/01 00:49:45;;;;;;;11.90;8.32;;;25.60;94.60;;;;;;5054814;28;20229;-66
2022/07/01 00:52:12;;;;;;;11.82;8.55;;;25.50;94.80;;;;;;5041700;28;20217;-66
2022/07/01 00:54:41;;;;;;;11.57;8.38;;;25.50;95.00;;;;;;5048789;28;20216;-67
2022/07/01 00:57:09;;;;;;;10.98;8.70;;;25.50;95.10;;;;;;5054790;28;20710;-66
2022/07/01 00:59:36;;;;;;;11.63;8.10;;;25.50;95.20;;;;;;5048880;28;20202;-67
2022/07/01 01:02:04;;;;;;;10.40;8.43;;;25.50;95.40;;;;;;5054230;28;20220;-66
2022/07/01 01:04:32;;;;;;;12.98;9.75;;;25.50;95.60;;;;;;5054524;28;20289;-66
2022/07/01 01:06:59;;;;;;;13.25;8.15;;;25.40;95.70;;;;;;5054215;28;20273;-66
2022/07/01 01:09:26;;;;;;;10.88;8.68;;;25.40;95.80;;;;;;5052763;28;20631;-66
2022/07/01 01:11:54;;;;;;;10.95;8.48;;;25.40;96.00;;;;;;5053837;28;20220;-66
2022/07/01 01:14:21;;;;;;;13.00;8.63;;;25.40;96.10;;;;;;5054576;28;20213;-67
2022/07/01 01:16:48;;;;;;;12.55;8.40;;;25.40;96.30;;;;;;5052584;28;20233;-66
2022/07/01 01:19:15;;;;;;;10.32;8.88;;;25.40;96.40;;;;;;5050880;28;20206;-65
2022/07/01 01:21:43;;;;;;;10.68;9.18;;;25.40;96.60;;;;;;5051144;28;20655;-66
2022/07/01 01:24:10;;;;;;;12.73;8.77;;;25.40;96.80;;;;;;5052279;28;20303;-66
2022/07/01 01:26:38;;;;;;;10.52;9.38;;;25.30;96.90;;;;;;5041901;28;20648;-65
2022/07/01 01:29:07;;;;;;;10.32;8.55;;;25.30;97.00;;;;;;5053340;28;20229;-65
2022/07/01 01:31:34;;;;;;;10.15;9.15;;;25.30;97.10;;;;;;5053818;28;20202;-65
2022/07/01 01:34:01;;;;;;;11.57;8.65;;;25.30;97.20;;;;;;5053041;28;20217;-65
2022/07/01 01:36:28;;;;;;;11.65;9.45;;;25.30;97.30;;;;;;5053860;28;20241;-65
2022/07/01 01:38:57;;;;;;;10.77;8.68;;;25.30;97.50;;;;;;5053553;28;20665;-66
2022/07/01 01:41:24;;;;;;;12.10;8.80;;;25.30;98.00;;;;;;5053358;28;20304;-67
2022/07/01 01:43:50;;;;;;;8.77;7.78;;;25.20;98.10;;;;;;5054308;28;20213;-66
2022/07/01 01:46:17;;;;;;;8.80;7.32;;;25.20;97.90;;;;;;5053047;28;20217;-67
2022/07/01 01:48:44;;;;;;;9.88;8.20;;;25.10;97.90;;;;;;5051076;28;20225;-67
2022/07/01 01:51:10;;;;;;;13.90;8.15;;;25.10;97.90;;;;;;5049110;28;20614;-65
2022/07/01 01:53:37;;;;;;;13.18;8.95;;;25.00;97.70;;;;;;5039912;28;20205;-65
2022/07/01 01:56:06;;;;;;;12.90;9.18;;;25.00;97.60;;;;;;5053244;28;20213;-65
2022/07/01 01:58:32;;;;;;;14.57;9.57;;;24.90;97.60;;;;;;5053508;28;20198;-65
2022/07/01 02:00:59;;;;;;;10.10;8.10;;;24.90;97.70;;;;;;5052804;28;20209;-67
2022/07/01 02:03:26;;;;;;;9.50;7.47;;;24.80;97.70;;;;;;5050110;28;20661;-66
2022/07/01 02:05:53;;;;;;;11.00;7.60;;;24.80;97.80;;;;;;5051208;28;20297;-67
2022/07/01 02:08:20;;;;;;;13.98;9.38;;;24.80;97.80;;;;;;5053085;28;20222;-67
2022/07/01 02:10:47;;;;;;;9.15;8.02;;;24.70;97.90;;;;;;5052015;28;20202;-68
2022/07/01 02:13:15;;;;;;;13.05;7.65;;;24.70;98.00;;;;;;5051481;28;20216;-67
2022/07/01 02:15:41;;;;;;;13.82;8.75;;;24.60;98.20;;;;;;5053511;28;20647;-67
2022/07/01 02:18:08;;;;;;;12.73;8.30;;;24.60;98.50;;;;;;5054568;28;20221;-67
2022/07/01 02:20:35;;;;;;;14.43;8.90;;;24.60;98.80;;;;;;5052868;28;20244;-66
2022/07/01 02:23:02;;;;;;;11.63;8.13;;;24.60;98.90;;;;;;5047211;28;20221;-67
2022/07/01 02:25:29;;;;;;;11.93;8.82;;;24.60;99.00;;;;;;5048847;28;20222;-67
2022/07/01 02:27:57;;;;;;;13.02;7.97;;;24.60;99.10;;;;;;5052853;28;20230;-67
2022/07/01 02:30:26;;;;;;;10.20;8.98;;;24.60;99.10;;;;;;5040213;28;20237;-67
2022/07/01 02:32:52;;;;;;;10.63;9.00;;;24.50;99.30;;;;;;5052815;28;20258;-66
2022/07/01 02:35:19;;;;;;;8.95;7.78;;;24.50;99.40;;;;;;5054319;28;20276;-67
2022/07/01 02:37:46;;;;;;;10.60;8.10;;;24.50;99.60;;;;;;5052719;28;20208;-68
2022/07/01 02:40:13;;;;;;;9.63;7.53;;;24.50;99.60;;;;;;5048751;28;20213;-68
2022/07/01 02:42:40;;;;;;;10.98;7.38;;;24.40;99.60;;;;;;5053114;28;20210;-67
2022/07/01 02:45:09;;;;;;;11.00;8.18;;;24.40;99.70;;;;;;5052842;28;20217;-67
2022/07/01 02:47:39;;;;;;;11.38;9.18;;;24.50;99.70;;;;;;5051493;28;20213;-67
2022/07/01 02:50:08;;;;;;;14.32;9.15;;;24.40;99.80;;;;;;5044033;28;20226;-66
2022/07/01 02:52:36;;;;;;;11.32;7.60;;;24.50;99.90;;;;;;5052712;28;20257;-66
2022/07/01 02:55:04;;;;;;;19.10;12.95;;;24.50;99.90;;;;;;5052553;28;20498;-66
2022/07/01 02:57:30;;;;;;;16.27;9.80;;;24.40;99.80;;;;;;5051716;28;20310;-65
2022/07/01 02:59:57;;;;;;;10.65;8.40;;;24.40;99.90;;;;;;5045424;28;20673;-66
2022/07/01 03:02:24;;;;;;;12.40;8.88;;;24.50;99.90;;;;;;5056328;28;20287;-66
2022/07/01 03:04:54;;;;;;;13.82;8.00;;;24.40;99.90;;;;;;5052919;28;20576;-66
2022/07/01 03:07:21;;;;;;;11.77;7.38;;;24.40;99.90;;;;;;5051820;28;20213;-67
2022/07/01 03:09:48;;;;;;;11.38;8.65;;;24.40;99.90;;;;;;5051320;28;20295;-67
2022/07/01 03:12:28;;;;;;;12.38;8.93;;;24.40;99.90;;;;;;5046131;28;20207;-66
2022/07/01 03:14:57;;;;;;;19.45;9.93;;;24.40;99.90;;;;;;5046539;28;20201;-66
2022/07/01 03:17:25;;;;;;;10.57;7.90;;;24.50;99.90;;;;;;5053569;28;20211;-67
2022/07/01 03:19:54;;;;;;;11.18;8.90;;;24.50;99.90;;;;;;5043476;28;20528;-66
2022/07/01 03:22:22;;;;;;;11.77;7.63;;;24.40;99.90;;;;;;5050783;28;20267;-66
2022/07/01 03:24:49;;;;;;;13.40;7.50;;;24.40;99.90;;;;;;5048084;28;20213;-66
2022/07/01 03:27:16;;;;;;;12.00;7.25;;;24.40;99.90;;;;;;5050011;28;20225;-67
2022/07/01 03:29:43;;;;;;;14.80;11.30;;;24.40;99.90;;;;;;5051275;28;20214;-65
2022/07/01 03:32:11;;;;;;;18.75;10.93;;;24.50;99.90;;;;;;5052838;28;20248;-66
2022/07/01 03:34:38;;;;;;;15.30;8.73;;;24.50;99.90;;;;;;5052702;28;20233;-66
2022/07/01 03:37:07;;;;;;;18.27;10.25;;;24.50;99.90;;;;;;5051940;28;20237;-66
2022/07/01 03:39:35;;;;;;;14.30;9.30;;;24.50;99.90;;;;;;5049210;28;20213;-67
2022/07/01 03:42:02;;;;;;;13.68;8.43;;;24.50;99.90;;;;;;5043245;28;20206;-68
2022/07/01 03:44:29;;;;;;;10.82;8.80;;;24.50;99.90;;;;;;5046334;28;20217;-68
2022/07/01 03:46:56;;;;;;;11.95;8.80;;;24.50;99.90;;;;;;5048733;28;20237;-68
2022/07/01 03:49:23;;;;;;;15.90;11.05;;;24.50;99.90;;;;;;5045264;28;20229;-70
2022/07/01 03:51:51;;;;;;;13.38;10.38;;;24.60;99.90;;;;;;5051210;28;20209;-69
2022/07/01 03:54:32;;;;;;;16.85;11.98;;;24.60;99.90;;;;;;5039864;28;20207;-70
2022/07/01 03:57:00;;;;;;;15.02;10.05;;;24.70;99.90;;;;;;5038985;28;20206;-69
2022/07/01 03:59:27;;;;;;;16.40;10.82;;;24.70;99.90;;;;;;5051359;28;20213;-69
2022/07/01 04:01:54;;;;;;;12.25;8.73;;;24.80;99.90;;;;;;5038540;28;20213;-69
2022/07/01 04:04:21;;;;;;;13.95;9.52;;;24.80;99.90;;;;;;5051739;28;20209;-69
2022/07/01 04:06:48;;;;;;;14.82;10.10;;;24.80;99.90;;;;;;5051775;28;20201;-68
2022/07/01 04:09:17;;;;;;;11.48;9.13;;;24.80;99.90;;;;;;5049937;28;20226;-70
2022/07/01 04:11:46;;;;;;;11.80;10.13;;;24.90;99.90;;;;;;5048752;28;20661;-70
2022/07/01 04:14:13;;;;;;;12.25;10.50;;;24.90;99.90;;;;;;5050451;28;20217;-68
2022/07/01 04:16:40;;;;;;;11.90;9.98;;;24.90;99.90;;;;;;5049537;28;20205;-69
2022/07/01 04:19:08;;;;;;;15.88;11.00;;;24.90;99.90;;;;;;5048103;28;20225;-69
2022/07/01 04:24:19;;;;;;;17.35;13.85;;;24.90;99.90;;;;;;5037606;28;20236;-69
2022/07/01 04:26:47;;;;;;;16.40;12.38;;;24.90;99.90;;;;;;5050033;28;20338;-68
2022/07/01 04:29:14;;;;;;;15.02;11.73;;;24.90;99.90;;;;;;5033882;28;20248;-67
2022/07/01 04:31:40;;;;;;;19.55;11.75;;;25.00;99.90;;;;;;5037972;28;20222;-70
2022/07/01 04:34:09;;;;;;;15.85;12.20;;;25.00;99.90;;;;;;5049243;28;20217;-69
2022/07/01 04:36:36;;;;;;;16.23;11.77;;;25.00;99.90;;;;;;5053263;28;20257;-69
2022/07/01 04:39:03;;;;;;;17.23;12.23;;;25.00;99.90;;;;;;5051889;28;20210;-68
2022/07/01 04:44:17;;;;;;;16.80;12.18;;;25.00;99.90;;;;;;5053807;28;20371;-69
2022/07/01 04:46:44;;;;;;;13.18;11.60;;;25.10;99.90;;;;;;5053781;28;20686;-69
2022/07/01 04:49:10;;;;;;;16.65;13.02;;;25.10;99.90;;;;;;5051202;28;20218;-68
2022/07/01 04:51:37;;;;;;;15.85;13.10;;;25.20;99.90;;;;;;5048848;28;20453;-69
2022/07/01 04:54:05;;;;;;;13.13;11.77;;;25.20;99.90;;;;;;5049404;28;20206;-69
2022/07/01 04:56:34;;;;;;;15.90;13.27;;;25.30;99.90;;;;;;5048355;28;20202;-68
2022/07/01 04:59:01;;;;;;;15.75;12.52;;;25.40;99.90;;;;;;5053189;28;20221;-69
2022/07/01 05:01:29;;;;;;;13.20;10.77;;;25.40;99.90;;;;;;5041266;28;20674;-69
2022/07/01 05:03:56;;;;;;;14.32;12.80;;;25.40;99.90;;;;;;5051707;28;20210;-69
2022/07/01 05:06:23;;;;;;;13.70;12.30;;;25.50;99.90;;;;;;5050966;28;20210;-69
2022/07/01 05:08:50;;;;;;;12.43;11.32;;;25.50;99.90;;;;;;5052233;28;20206;-68
2022/07/01 05:11:17;;;;;;;14.30;11.73;;;25.60;99.90;;;;;;5051892;28;20214;-69
2022/07/01 05:13:44;;;;;;;17.70;12.25;;;25.70;99.90;;;;;;5050069;28;20320;-69
2022/07/01 05:16:10;;;;;;;12.00;10.90;;;25.80;99.90;;;;;;5051976;28;20559;-69
2022/07/01 05:24:06;;;;;;;15.20;11.88;;;26.00;99.90;;;;;;5045174;28;20198;-67
2022/07/01 05:26:32;;;;;;;14.68;11.75;;;26.00;99.90;;;;;;5044816;28;20210;-68
2022/07/01 05:28:59;;;;;;;13.30;11.98;;;26.10;99.90;;;;;;5050944;28;20609;-69
2022/07/01 05:31:26;;;;;;;12.55;11.25;;;26.20;99.90;;;;;;5044972;28;20217;-69
2022/07/01 05:33:54;;;;;;;13.80;11.65;;;26.30;99.90;;;;;;5050196;28;20222;-68
2022/07/01 05:36:21;;;;;;;13.02;11.82;;;26.40;99.90;;;;;;5047904;28;20237;-68
2022/07/01 05:38:48;;;;;;;13.82;12.43;;;26.40;99.90;;;;;;5050424;28;20212;-68
2022/07/01 05:41:15;;;;;;;15.25;13.60;;;26.50;99.90;;;;;;5049748;28;20216;-69
2022/07/01 05:43:42;;;;;;;17.42;12.55;;;26.50;99.90;;;;;;5052199;28;20197;-70
2022/07/01 05:46:09;;;;;;;13.43;12.05;;;26.60;99.90;;;;;;5054780;28;20207;-68
2022/07/01 05:48:35;;;;;;;13.45;12.02;;;26.60;99.90;;;;;;5052149;28;20209;-69
2022/07/01 05:51:04;;;;;;;14.13;11.63;;;26.60;99.90;;;;;;5046194;28;20245;-70
2022/07/01 05:53:30;;;;;;;14.98;11.90;;;26.70;99.90;;;;;;5048489;28;20206;-68
2022/07/01 05:55:57;;;;;;;14.15;11.95;;;26.70;99.90;;;;;;5037775;28;20209;-68
2022/07/01 05:58:24;;;;;;;12.93;11.63;;;26.70;99.90;;;;;;5050696;28;20205;-68
2022/07/01 06:00:51;;;;;;;15.02;11.35;;;26.70;99.90;;;;;;5052718;28;20347;-68
2022/07/01 06:03:18;;;;;;;15.57;12.68;;;26.80;99.90;;;;;;5050282;28;20213;-67
2022/07/01 06:05:44;;;;;;;14.00;12.18;;;26.90;99.90;;;;;;5050918;28;20550;-71
2022/07/01 06:08:12;;;;;;;16.48;11.63;;;27.00;99.90;;;;;;5051448;28;20550;-68
2022/07/01 06:10:39;;;;;;;13.23;11.88;;;27.10;99.90;;;;;;5049568;28;20225;-75
2022/07/01 06:13:06;;;;;;;14.73;13.15;;;27.20;99.90;;;;;;5049558;28;20234;-66
2022/07/01 06:15:33;;;;;;;12.35;11.18;;;27.20;99.90;;;;;;5046371;28;20203;-68
2022/07/01 06:18:00;;;;;;;14.50;12.35;;;27.30;99.90;;;;;;5041527;28;20206;-68
2022/07/01 06:20:28;;;;;;;12.05;10.82;;;27.40;99.90;;;;;;5049976;28;20209;-68
2022/07/01 06:22:54;;;;;;;13.82;11.82;;;27.50;99.90;;;;;;5050645;28;20525;-70
2022/07/01 06:25:22;;;;;;;12.80;11.38;;;27.60;99.90;;;;;;5050192;28;20680;-68
2022/07/01 06:27:49;;;;;;;14.00;11.35;;;27.70;99.90;;;;;;5049540;28;20232;-69
2022/07/01 06:30:16;;;;;;;11.90;10.70;;;27.70;99.90;;;;;;5047525;28;20526;-69
2022/07/01 06:32:43;;;;;;;11.85;10.65;;;27.80;99.90;;;;;;5050643;28;20210;-67
2022/07/01 06:35:10;;;;;;;12.98;11.68;;;27.90;99.90;;;;;;5050745;28;20225;-67
2022/07/01 06:37:37;;;;;;;11.18;10.02;;;28.00;99.90;;;;;;5043961;28;20198;-69
2022/07/01 06:40:05;;;;;;;12.95;10.27;;;28.10;99.90;;;;;;5048386;28;20210;-68
2022/07/01 06:42:34;;;;;;;15.73;12.23;;;28.20;99.90;;;;;;5043570;28;20221;-67
2022/07/01 06:45:01;;;;;;;12.35;11.25;;;28.20;99.90;;;;;;5036555;28;20305;-67
2022/07/01 06:47:28;;;;;;;12.38;11.07;;;28.30;99.90;;;;;;5039856;28;20621;-68
2022/07/01 06:49:55;;;;;;;12.32;11.10;;;28.30;99.90;;;;;;5044067;28;20230;-69
2022/07/01 06:52:22;;;;;;;12.25;10.23;;;28.40;99.90;;;;;;5037098;28;20803;-66
2022/07/01 06:54:49;;;;;;;13.48;10.75;;;28.50;99.90;;;;;;5045656;28;20213;-66
2022/07/01 06:57:15;;;;;;;12.43;10.30;;;28.60;99.90;;;;;;5050122;28;20659;-69
2022/07/01 06:59:43;;;;;;;12.65;10.32;;;28.70;99.70;;;;;;5050592;28;20212;-66
2022/07/01 07:02:10;;;;;;;12.73;11.50;;;28.80;99.50;;;;;;5052204;28;20566;-66
2022/07/01 07:04:37;;;;;;;14.25;11.25;;;28.90;99.30;;;;;;5050970;28;20217;-69
2022/07/01 07:07:04;;;;;;;12.10;10.90;;;29.00;99.20;;;;;;5052155;28;20601;-66
2022/07/01 07:09:31;;;;;;;15.50;11.68;;;29.10;98.80;;;;;;5049318;28;20208;-65
2022/07/01 07:11:58;;;;;;;16.13;12.45;;;29.20;98.60;;;;;;5049419;28;20198;-65
2022/07/01 07:14:25;;;;;;;15.73;12.85;;;29.30;98.60;;;;;;5049862;28;20206;-65
2022/07/01 07:16:54;;;;;;;13.77;12.02;;;29.40;98.30;;;;;;5042925;28;20306;-67
2022/07/01 07:19:21;;;;;;;17.48;10.65;;;29.50;98.20;;;;;;5045519;28;20212;-66
2022/07/01 07:21:48;;;;;;;14.93;10.50;;;29.60;97.80;;;;;;5037019;28;20209;-64
2022/07/01 07:24:14;;;;;;;14.27;10.48;;;29.70;97.40;;;;;;5043312;28;20210;-65
2022/07/01 07:26:41;;;;;;;14.77;10.85;;;29.80;97.20;;;;;;5043140;28;20207;-64
2022/07/01 07:29:08;;;;;;;13.05;10.18;;;30.00;96.90;;;;;;5047909;28;20221;-65
2022/07/01 07:31:35;;;;;;;15.65;11.20;;;30.10;96.70;;;;;;5048220;28;20225;-68
2022/07/01 07:34:03;;;;;;;12.77;10.05;;;30.30;96.40;;;;;;5046748;28;20206;-66
2022/07/01 07:36:29;;;;;;;13.90;11.23;;;30.40;96.20;;;;;;5050037;28;20248;-66
2022/07/01 07:38:56;;;;;;;16.10;12.10;;;30.60;96.10;;;;;;5048938;28;20213;-66
2022/07/01 07:41:23;;;;;;;15.27;11.20;;;30.60;95.30;;;;;;5045457;28;20221;-65
2022/07/01 07:43:50;;;;;;;12.18;10.48;;;30.60;95.10;;;;;;5050485;28;20197;-67
2022/07/01 07:46:16;;;;;;;16.58;10.57;;;30.70;94.80;;;;;;5048116;28;20572;-75
2022/07/01 07:48:43;;;;;;;14.10;11.00;;;30.80;94.50;;;;;;5042880;28;20206;-66
2022/07/01 07:51:15;;;;;;;11.77;10.32;;;30.90;94.50;;;;;;5042044;28;20745;-66
2022/07/01 07:53:42;;;;;;;12.63;9.32;;;31.00;94.10;;;;;;5047380;28;20267;-66
2022/07/01 07:56:09;;;;;;;11.68;10.48;;;31.20;93.80;;;;;;5054326;28;20208;-64
2022/07/01 07:58:35;;;;;;;13.73;10.98;;;31.20;93.10;;;;;;5049658;28;20654;-66
2022/07/01 08:01:02;;;;;;;12.32;9.60;;;31.40;92.90;;;;;;5045971;28;20202;-66
2022/07/01 08:03:29;;;;;;;13.82;9.95;;;31.50;92.60;;;;;;5046954;28;20701;-66
2022/07/01 08:05:56;;;;;;;14.13;9.10;;;31.60;92.10;;;;;;5048065;28;20661;-65
2022/07/01 08:08:24;;;;;;;14.52;9.23;;;31.70;91.50;;;;;;5048718;28;20654;-66
2022/07/01 08:10:51;;;;;;;9.50;8.57;;;31.90;91.30;;;;;;5048799;28;20609;-68
2022/07/01 08:13:17;;;;;;;9.73;8.57;;;32.00;90.90;;;;;;5052175;28;20229;-64
2022/07/01 08:15:44;;;;;;;12.38;8.93;;;32.10;90.60;;;;;;5051913;28;20209;-65
2022/07/01 08:18:11;;;;;;;11.02;8.35;;;32.10;90.30;;;;;;5053032;28;20678;-65
2022/07/01 08:20:38;;;;;;;17.80;8.85;;;32.20;89.60;;;;;;5052994;28;20210;-70
2022/07/01 08:23:04;;;;;;;9.52;7.38;;;32.30;88.80;;;;;;5052285;28;20210;-66
2022/07/01 08:25:33;;;;;;;8.32;7.50;;;32.30;88.10;;;;;;5052295;28;20221;-67
2022/07/01 08:27:59;;;;;;;9.07;7.30;;;32.40;87.20;;;;;;5054308;28;20222;-73
2022/07/01 08:30:26;;;;;;;7.70;6.93;;;32.50;85.90;;;;;;5044623;28;20701;-69
2022/07/01 08:32:53;;;;;;;9.82;7.18;;;32.60;85.00;;;;;;5051105;28;20202;-68
2022/07/01 08:35:20;;;;;;;7.80;7.10;;;32.60;83.80;;;;;;5047669;28;20230;-68
2022/07/01 08:37:46;;;;;;;10.93;7.53;;;32.70;82.90;;;;;;5052726;28;20217;-68
2022/07/01 08:40:13;;;;;;;9.02;7.25;;;32.90;81.90;;;;;;5051717;28;20205;-67
2022/07/01 08:42:42;;;;;;;10.25;6.88;;;32.90;80.90;;;;;;5051031;28;20932;-69
2022/07/01 08:45:10;;;;;;;8.25;7.13;;;33.00;80.60;;;;;;5051422;28;20210;-68
2022/07/01 08:47:51;;;;;;;10.32;6.28;;;33.10;79.40;;;;;;5051309;28;20213;-69
2022/07/01 08:50:17;;;;;;;6.82;6.13;;;33.20;79.30;;;;;;5051004;28;20641;-67
2022/07/01 08:52:44;;;;;;;7.15;6.43;;;33.30;77.60;;;;;;5057630;28;20206;-68
2022/07/01 08:55:11;;;;;;;11.15;6.93;;;33.30;75.60;;;;;;5052844;28;20214;-69
2022/07/01 08:57:38;;;;;;;8.07;6.60;;;33.30;75.10;;;;;;5044629;28;20264;-69
2022/07/01 09:00:08;;;;;;;7.03;6.30;;;33.40;74.40;;;;;;5052078;28;20245;-69
2022/07/01 09:02:51;;;;;;;12.23;6.40;;;33.60;73.80;;;;;;5048213;28;20198;-67
2022/07/01 09:05:18;;;;;;;8.43;6.68;;;33.70;72.10;;;;;;5048017;28;20205;-67
2022/07/01 09:07:45;;;;;;;7.60;6.85;;;33.90;71.20;;;;;;5051722;28;20240;-69
2022/07/01 09:10:18;;;;;;;7.45;6.50;;;33.90;70.90;;;;;;5052677;28;20210;-68
2022/07/01 09:12:45;;;;;;;7.88;6.57;;;34.10;69.70;;;;;;5052090;28;20623;-68
2022/07/01 09:15:28;;;;;;;6.55;6.03;;;34.10;67.90;;;;;;5051425;28;20229;-69
2022/07/01 09:17:57;;;;;;;7.50;5.88;;;34.20;65.80;;;;;;5041122;28;20194;-68
2022/07/01 09:20:25;;;;;;;7.40;6.63;;;34.30;65.90;;;;;;5051220;28;20682;-68
2022/07/01 09:23:00;;;;;;;6.93;6.13;;;34.30;66.90;;;;;;5050267;28;20552;-68
2022/07/01 09:25:32;;;;;;;10.23;7.28;;;34.30;67.60;;;;;;5053672;28;20620;-69
2022/07/01 09:28:06;;;;;;;9.35;6.25;;;34.40;67.10;;;;;;5048142;28;20698;-68
2022/07/01 09:30:34;;;;;;;6.57;5.97;;;34.60;67.10;;;;;;5049617;28;20229;-67
2022/07/01 09:33:12;;;;;;;8.40;5.97;;;34.70;66.20;;;;;;5052311;28;20213;-69
2022/07/01 09:35:40;;;;;;;6.95;5.95;;;34.80;65.10;;;;;;5047526;28;20252;-68
2022/07/01 09:38:08;;;;;;;7.65;6.38;;;35.00;64.40;;;;;;5045558;28;20304;-69
2022/07/01 09:40:47;;;;;;;6.35;5.75;;;35.10;63.30;;;;;;5043097;28;20663;-70
2022/07/01 09:43:18;;;;;;;7.55;5.55;;;35.10;63.00;;;;;;5049619;28;20658;-70
2022/07/01 09:45:57;;;;;;;7.50;6.15;;;35.20;62.80;;;;;;5043729;28;20593;-70
2022/07/01 09:48:26;;;;;;;6.88;6.20;;;35.30;62.40;;;;;;5043618;28;20210;-68
2022/07/01 09:50:53;;;;;;;9.40;6.57;;;35.30;62.30;;;;;;5050059;28;20241;-69
2022/07/01 09:53:20;;;;;;;6.60;5.90;;;35.30;62.70;;;;;;5045128;28;20293;-69
2022/07/01 09:55:47;;;;;;;11.10;6.35;;;35.50;62.40;;;;;;5046426;28;20202;-70
2022/07/01 09:58:14;;;;;;;7.63;6.07;;;35.50;61.60;;;;;;5048693;28;20206;-69
2022/07/01 10:00:41;;;;;;;7.70;5.53;;;35.60;61.40;;;;;;5053149;28;20534;-70
2022/07/01 10:03:10;;;;;;;7.40;6.13;;;35.60;60.50;;;;;;5053380;28;20213;-70
2022/07/01 10:05:44;;;;;;;8.20;5.90;;;35.60;60.40;;;;;;5043904;28;20230;-68
2022/07/01 10:08:41;;;;;;;7.03;6.40;;;35.60;61.10;;;;;;5049768;28;20198;-67
2022/07/01 10:11:40;;;;;;;7.40;6.22;;;35.70;61.80;;;;;;5048694;28;20210;-66
2022/07/01 10:14:08;;;;;;;7.15;6.15;;;35.70;60.60;;;;;;5045989;28;20207;-69
2022/07/01 10:16:36;;;;;;;7.18;6.45;;;35.60;60.90;;;;;;5046977;28;20398;-68
2022/07/01 10:19:26;;;;;;;7.40;6.22;;;35.50;61.90;;;;;;5043893;28;20271;-67
2022/07/01 10:21:56;;;;;;;12.88;6.35;;;35.40;61.40;;;;;;5047265;28;20217;-69
2022/07/01 10:24:24;;;;;;;6.80;6.10;;;35.30;61.10;;;;;;5045094;28;20676;-67
2022/07/01 10:26:51;;;;;;;7.68;5.80;;;35.20;60.80;;;;;;5048314;28;20209;-67
2022/07/01 10:29:32;;;;;;;6.80;6.10;;;35.30;60.70;;;;;;5045840;28;20580;-70
2022/07/01 10:32:04;;;;;;;7.45;6.63;;;35.30;60.90;;;;;;5046620;28;20225;-68
2022/07/01 10:34:40;;;;;;;7.05;5.72;;;35.30;61.00;;;;;;5044529;28;20213;-68
2022/07/01 10:37:09;;;;;;;6.97;5.63;;;35.40;60.10;;;;;;5041962;28;20870;-66
2022/07/01 10:39:57;;;;;;;8.70;5.38;;;35.40;59.90;;;;;;5045706;28;20202;-67
2022/07/01 10:42:30;;;;;;;8.38;5.88;;;35.40;59.40;;;;;;5044195;28;20212;-68
2022/07/01 10:45:08;;;;;;;9.35;5.60;;;35.50;59.30;;;;;;5050479;28;20478;-68
2022/07/01 10:47:36;;;;;;;8.13;5.43;;;35.50;58.70;;;;;;5052496;28;20426;-68
2022/07/01 10:50:12;;;;;;;7.20;6.03;;;35.60;58.80;;;;;;5047123;28;20654;-67
2022/07/01 10:52:40;;;;;;;9.32;6.15;;;35.80;58.80;;;;;;5052579;28;20214;-68
2022/07/01 10:55:08;;;;;;;7.40;5.05;;;35.90;58.20;;;;;;5053027;28;20202;-68
2022/07/01 10:57:39;;;;;;;7.05;5.97;;;36.00;57.10;;;;;;5050141;28;20206;-66
2022/07/01 11:00:32;;;;;;;7.25;6.55;;;36.10;57.40;;;;;;5044774;28;20205;-68
2022/07/01 11:03:10;;;;;;;9.88;6.53;;;36.10;57.90;;;;;;5046828;28;20554;-69
2022/07/01 11:05:39;;;;;;;8.70;6.07;;;36.00;58.10;;;;;;5051676;28;20202;-68
2022/07/01 11:08:07;;;;;;;6.53;5.88;;;36.00;58.20;;;;;;5049988;28;20594;-67
2022/07/01 11:10:34;;;;;;;6.28;5.47;;;36.10;58.20;;;;;;5045708;28;20201;-68
2022/07/01 11:13:01;;;;;;;7.90;5.85;;;36.20;57.50;;;;;;5048181;28;20245;-68
2022/07/01 11:15:30;;;;;;;11.80;6.13;;;36.30;57.00;;;;;;5042940;28;20210;-69
2022/07/01 11:17:58;;;;;;;6.75;5.40;;;36.30;56.50;;;;;;5050097;28;20349;-67
2022/07/01 11:20:26;;;;;;;11.02;6.13;;;36.40;56.70;;;;;;5048953;28;20212;-68
2022/07/01 11:22:54;;;;;;;8.18;5.43;;;36.60;56.20;;;;;;5045825;28;20221;-68
2022/07/01 11:25:21;;;;;;;11.02;5.72;;;36.70;56.10;;;;;;5046448;28;20197;-68
2022/07/01 11:27:50;;;;;;;7.70;5.13;;;36.70;55.10;;;;;;5050068;28;20681;-66
2022/07/01 11:30:18;;;;;;;8.02;4.45;;;36.70;54.60;;;;;;5047250;28;20209;-69
2022/07/01 11:32:48;;;;;;;6.50;5.63;;;36.60;53.90;;;;;;5048767;28;20617;-68
2022/07/01 11:40:52;;;;;;;5.85;4.93;;;36.20;53.20;;;;;;5048874;28;20260;-71
2022/07/01 11:43:25;;;;;;;5.72;5.13;;;36.20;53.50;;;;;;5041829;28;20206;-71
2022/07/01 11:45:52;;;;;;;6.30;5.05;;;36.30;53.40;;;;;;5052602;28;20214;-68
2022/07/01 11:48:42;;;;;;;5.93;5.22;;;36.40;53.40;;;;;;5048534;28;20293;-65
2022/07/01 11:51:12;;;;;;;7.88;4.85;;;36.40;53.40;;;;;;5054881;28;20273;-67
2022/07/01 11:53:42;;;;;;;9.25;5.95;;;36.40;53.40;;;;;;5066415;28;20229;-68
2022/07/01 11:56:10;;;;;;;9.48;5.72;;;36.30;53.20;;;;;;5073040;28;20204;-67
2022/07/01 11:58:49;;;;;;;8.02;5.78;;;36.30;53.60;;;;;;5039000;28;20209;-66
2022/07/01 12:01:30;;;;;;;7.53;5.40;;;36.30;53.90;;;;;;5072288;28;20229;-66
2022/07/01 12:03:59;;;;;;;6.90;5.38;;;36.40;53.30;;;;;;5045673;28;20221;-65
2022/07/01 12:06:27;;;;;;;8.25;5.05;;;36.50;52.70;;;;;;5059818;28;20209;-68
2022/07/01 12:08:56;;;;;;;8.00;5.10;;;36.50;52.70;;;;;;5048577;28;20209;-68
2022/07/01 12:11:23;;;;;;;8.75;5.35;;;36.40;52.00;;;;;;5041232;28;20595;-67
2022/07/01 12:13:51;;;;;;;8.07;5.38;;;36.50;52.50;;;;;;5053739;28;20208;-67
2022/07/01 12:16:19;;;;;;;10.45;5.28;;;36.50;52.90;;;;;;5041934;28;20213;-68
2022/07/01 12:18:57;;;;;;;6.18;5.57;;;36.50;52.70;;;;;;5053524;28;20210;-67
2022/07/01 12:21:25;;;;;;;9.60;5.40;;;36.50;52.70;;;;;;5049527;28;20202;-68
2022/07/01 12:24:10;;;;;;;6.65;5.90;;;36.50;52.70;;;;;;5052115;28;20213;-68
2022/07/01 12:26:48;;;;;;;8.18;5.10;;;36.50;52.40;;;;;;5040925;28;20229;-66
2022/07/01 12:29:16;;;;;;;6.78;5.28;;;36.60;52.30;;;;;;5049687;28;20217;-68
2022/07/01 12:31:43;;;;;;;6.85;5.18;;;36.60;51.70;;;;;;5050513;28;20236;-68
2022/07/01 12:34:10;;;;;;;8.43;4.85;;;36.50;51.60;;;;;;5054661;28;20627;-67
2022/07/01 12:36:37;;;;;;;5.53;4.47;;;36.50;51.00;;;;;;5052268;28;20238;-68
2022/07/01 12:39:04;;;;;;;7.85;4.97;;;36.50;50.90;;;;;;5051431;28;20482;-67
2022/07/01 12:41:35;;;;;;;9.98;5.38;;;36.50;51.00;;;;;;5049484;28;20205;-67
2022/07/01 12:44:05;;;;;;;9.93;5.78;;;36.50;51.40;;;;;;5051021;28;20208;-67
2022/07/01 12:46:33;;;;;;;9.10;5.32;;;36.50;51.70;;;;;;5046257;28;20212;-67
2022/07/01 12:49:00;;;;;;;7.72;5.25;;;36.40;51.70;;;;;;5052168;28;20210;-68
2022/07/01 12:51:31;;;;;;;8.70;5.25;;;36.40;51.30;;;;;;5050142;28;20203;-67
2022/07/01 12:53:58;;;;;;;8.48;5.30;;;36.40;51.20;;;;;;5042064;28;20202;-68
2022/07/01 12:56:27;;;;;;;5.68;4.63;;;36.40;51.40;;;;;;5052470;28;20765;-69
2022/07/01 12:58:56;;;;;;;9.07;4.82;;;36.60;51.30;;;;;;5044562;28;20229;-67
2022/07/01 13:01:23;;;;;;;6.50;4.45;;;36.60;51.30;;;;;;5053638;28;20210;-69